PWSweather.com
Personal Weather Stations
Station Observations
IVENETOL9
Brugine, BrugineIT 35020

BrugineBrugineIT 35020

Lat: 45.2975, Lon: 11.9962777

Elevation: 19

Station Type: Davis Vantage Pro2 Plus

http://www.meteobrugine.it/

Latest ConditionsUpdated 9:30:38 AM GMT+01:01 Monday, Aug 31, 2015
Currently Today's Max Today's Min Today's Average
Temperature 78.4°F25.8°C 78.9°F26.1°C 66.2°F19.0°C 69.2°F20.7°C
Dew Point 75.5°F24.2°C 75.5°F24.2°C 66.0°F18.9°C 68.4°F20.2°C
Winds 0.1 mph NE0.2 kmh NE 0.1 mph NE0.2 kmh NE - 0.0 mph 0.0 kmh
Wind Gusts 1.0 mph1.6 kmh 1.0 mph1.6 kmh - -
Humidity 91% 100% 88% 98%
Pressure 30.04 in1017.3 mb 30.08 in1018.6 mb 30.04 in1017.3 mb -
Hour Temp Dew Point Humidity Winds Wind Gusts Pressure Precip Precip Rate Daily Precip Total
09:30 AM 78.4°F25.8°C 75.5°F24.2°C 91% 0.1 mph NE0.2 kmh NE 1.0 mph1.6 kmh 30.04 in1017.3 mb - 0.00 in0.0 mm 0.00 in0.0 mm
09:15 AM 78.9°F26.1°C 75.0°F23.9°C 88% 0.1 mph NE0.2 kmh NE 1.0 mph1.6 kmh 30.04 in1017.3 mb - 0.00 in0.0 mm 0.00 in0.0 mm
09:00 AM 78.4°F25.8°C 74.6°F23.7°C 88% Calm Calm -- 30.04 in1017.3 mb - 0.00 in0.0 mm 0.00 in0.0 mm
08:45 AM 76.9°F24.9°C 73.8°F23.2°C 90% Calm Calm -- 30.04 in1017.3 mb - 0.00 in0.0 mm 0.00 in0.0 mm
08:30 AM 75.6°F24.2°C 73.1°F22.8°C 92% Calm Calm -- 30.04 in1017.3 mb - 0.00 in0.0 mm 0.00 in0.0 mm
08:15 AM 74.1°F23.4°C 71.9°F22.2°C 93% 0.1 mph WNW0.2 kmh WNW 1.0 mph1.6 kmh 30.04 in1017.3 mb - 0.00 in0.0 mm 0.00 in0.0 mm
08:00 AM 73.4°F23.0°C 71.9°F22.2°C 95% Calm Calm -- 30.04 in1017.3 mb - 0.00 in0.0 mm 0.00 in0.0 mm
07:45 AM 72.4°F22.4°C 71.5°F21.9°C 97% Calm Calm -- 30.04 in1017.3 mb - 0.00 in0.0 mm 0.00 in0.0 mm
07:30 AM 70.9°F21.6°C 70.6°F21.4°C 99% 0.1 mph NW0.2 kmh NW -- 30.04 in1017.3 mb - 0.00 in0.0 mm 0.00 in0.0 mm
07:15 AM 69.8°F21.0°C 69.8°F21.0°C 100% Calm Calm -- 30.04 in1017.3 mb - 0.00 in0.0 mm 0.00 in0.0 mm
07:00 AM 69.1°F20.6°C 69.1°F20.6°C 100% Calm Calm -- 30.04 in1017.3 mb - 0.00 in0.0 mm 0.00 in0.0 mm
06:45 AM 68.1°F20.1°C 68.1°F20.1°C 100% Calm Calm -- 30.04 in1017.3 mb - 0.00 in0.0 mm 0.00 in0.0 mm
06:30 AM 67.5°F19.7°C 67.5°F19.7°C 100% Calm Calm -- 30.04 in1017.3 mb - 0.00 in0.0 mm 0.00 in0.0 mm
06:15 AM 66.9°F19.4°C 66.9°F19.4°C 100% Calm Calm -- 30.04 in1017.3 mb - 0.00 in0.0 mm 0.00 in0.0 mm
06:00 AM 66.4°F19.1°C 66.4°F19.1°C 100% Calm Calm -- 30.04 in1017.3 mb - 0.00 in0.0 mm 0.00 in0.0 mm
05:45 AM 66.4°F19.1°C 66.4°F19.1°C 100% Calm Calm -- 30.04 in1017.3 mb - 0.00 in0.0 mm 0.00 in0.0 mm
05:30 AM 66.3°F19.1°C 66.3°F19.1°C 100% Calm Calm -- 30.04 in1017.3 mb - 0.00 in0.0 mm 0.00 in0.0 mm
05:15 AM 66.4°F19.1°C 66.4°F19.1°C 100% Calm Calm -- 30.04 in1017.3 mb - 0.00 in0.0 mm 0.00 in0.0 mm
05:00 AM 66.4°F19.1°C 66.4°F19.1°C 100% Calm Calm -- 30.04 in1017.3 mb - 0.00 in0.0 mm 0.00 in0.0 mm
04:45 AM 66.7°F19.3°C 66.7°F19.3°C 100% Calm Calm -- 30.04 in1017.3 mb - 0.00 in0.0 mm 0.00 in0.0 mm
04:30 AM 66.2°F19.0°C 66.2°F19.0°C 100% Calm Calm -- 30.04 in1017.3 mb - 0.00 in0.0 mm 0.00 in0.0 mm
04:15 AM 66.6°F19.2°C 66.4°F19.1°C 99% Calm Calm -- 30.04 in1017.3 mb - 0.00 in0.0 mm 0.00 in0.0 mm
04:00 AM 66.3°F19.1°C 66.0°F18.9°C 99% Calm Calm -- 30.04 in1017.3 mb - 0.00 in0.0 mm 0.00 in0.0 mm
03:45 AM 66.3°F19.1°C 66.0°F18.9°C 99% Calm Calm -- 30.04 in1017.3 mb - 0.00 in0.0 mm 0.00 in0.0 mm
03:30 AM 66.5°F19.2°C 66.2°F19.0°C 99% Calm Calm -- 30.04 in1017.3 mb - 0.00 in0.0 mm 0.00 in0.0 mm
03:15 AM 66.8°F19.3°C 66.5°F19.2°C 99% Calm Calm -- 30.04 in1017.3 mb - 0.00 in0.0 mm 0.00 in0.0 mm
03:00 AM 66.8°F19.3°C 66.5°F19.2°C 99% Calm Calm -- 30.04 in1017.3 mb - 0.00 in0.0 mm 0.00 in0.0 mm
02:45 AM 67.0°F19.4°C 66.7°F19.3°C 99% Calm Calm -- 30.04 in1017.3 mb - 0.00 in0.0 mm 0.00 in0.0 mm
02:30 AM 66.8°F19.3°C 66.5°F19.2°C 99% Calm Calm -- 30.05 in1017.6 mb - 0.00 in0.0 mm 0.00 in0.0 mm
02:15 AM 67.0°F19.4°C 66.7°F19.3°C 99% Calm Calm -- 30.05 in1017.6 mb - 0.00 in0.0 mm 0.00 in0.0 mm
02:00 AM 67.4°F19.7°C 67.1°F19.5°C 99% Calm Calm -- 30.05 in1017.6 mb - 0.00 in0.0 mm 0.00 in0.0 mm
01:45 AM 67.1°F19.5°C 66.8°F19.3°C 99% Calm Calm -- 30.05 in1017.6 mb - 0.00 in0.0 mm 0.00 in0.0 mm
01:30 AM 67.9°F19.9°C 67.6°F19.8°C 99% Calm Calm -- 30.06 in1017.9 mb - 0.00 in0.0 mm 0.00 in0.0 mm
01:15 AM 67.8°F19.9°C 67.2°F19.6°C 98% Calm Calm -- 30.06 in1017.9 mb - 0.00 in0.0 mm 0.00 in0.0 mm
01:00 AM 68.1°F20.1°C 67.8°F19.9°C 99% Calm Calm -- 30.07 in1018.3 mb - 0.00 in0.0 mm 0.00 in0.0 mm
12:45 AM 68.1°F20.1°C 67.5°F19.7°C 98% Calm Calm -- 30.07 in1018.3 mb - 0.00 in0.0 mm 0.00 in0.0 mm
12:30 AM 68.3°F20.2°C 67.7°F19.8°C 98% Calm Calm -- 30.07 in1018.3 mb - 0.00 in0.0 mm 0.00 in0.0 mm
12:15 AM 68.5°F20.3°C 68.0°F20.0°C 98% Calm Calm -- 30.08 in1018.6 mb - 0.00 in0.0 mm 0.00 in0.0 mm
12:00 AM 68.8°F20.4°C 67.9°F19.9°C 97% Calm Calm -- 30.08 in1018.6 mb - 0.00 in0.0 mm 0.00 in0.0 mm